sensor_id;sensor_type;location;lat;lon;timestamp;pressure;altitude;pressure_sealevel;temperature;humidity
45327;BME280;31062;49.678;24.560;2023-03-15T00:02:27;96822.59;;;9.25;56.71
45327;BME280;31062;49.678;24.560;2023-03-15T00:05:12;96674.94;;;8.26;56.33
45327;BME280;31062;49.678;24.560;2023-03-15T00:07:58;96768.50;;;8.76;56.52
45327;BME280;31062;49.678;24.560;2023-03-15T00:10:45;96830.41;;;9.29;56.25
45327;BME280;31062;49.678;24.560;2023-03-15T00:13:32;96762.25;;;8.75;56.48
45327;BME280;31062;49.678;24.560;2023-03-15T00:16:17;96656.41;;;8.05;56.24
45327;BME280;31062;49.678;24.560;2023-03-15T00:19:03;96820.31;;;9.22;56.71
45327;BME280;31062;49.678;24.560;2023-03-15T00:21:48;96649.94;;;8.00;56.16
45327;BME280;31062;49.678;24.560;2023-03-15T00:24:34;96824.53;;;9.23;56.06
45327;BME280;31062;49.678;24.560;2023-03-15T00:27:19;96791.81;;;8.96;56.59
45327;BME280;31062;49.678;24.560;2023-03-15T00:30:05;96774.72;;;8.88;56.32
45327;BME280;31062;49.678;24.560;2023-03-15T00:32:52;96824.75;;;9.15;56.14
45327;BME280;31062;49.678;24.560;2023-03-15T00:35:42;96844.25;;;9.40;55.80
45327;BME280;31062;49.678;24.560;2023-03-15T00:38:28;96700.44;;;8.47;56.73
45327;BME280;31062;49.678;24.560;2023-03-15T00:41:15;96715.13;;;8.62;57.09
45327;BME280;31062;49.678;24.560;2023-03-15T00:44:01;96837.72;;;9.48;57.03
45327;BME280;31062;49.678;24.560;2023-03-15T00:46:49;96761.03;;;9.01;56.99
45327;BME280;31062;49.678;24.560;2023-03-15T00:49:34;96657.19;;;8.29;57.18
45327;BME280;31062;49.678;24.560;2023-03-15T00:52:20;96823.91;;;9.48;57.54
45327;BME280;31062;49.678;24.560;2023-03-15T00:55:12;96689.19;;;8.55;57.36
45327;BME280;31062;49.678;24.560;2023-03-15T00:57:58;96825.25;;;9.47;57.22
45327;BME280;31062;49.678;24.560;2023-03-15T01:00:45;96697.34;;;8.65;57.67
45327;BME280;31062;49.678;24.560;2023-03-15T01:03:30;96778.34;;;9.25;57.26
45327;BME280;31062;49.678;24.560;2023-03-15T01:06:18;96638.88;;;8.33;57.21
45327;BME280;31062;49.678;24.560;2023-03-15T01:09:05;96845.69;;;9.53;57.52
45327;BME280;31062;49.678;24.560;2023-03-15T01:11:50;96812.97;;;9.50;57.25
45327;BME280;31062;49.678;24.560;2023-03-15T01:14:36;96805.03;;;9.32;56.91
45327;BME280;31062;49.678;24.560;2023-03-15T01:17:23;96656.47;;;8.28;57.43
45327;BME280;31062;49.678;24.560;2023-03-15T01:20:11;96817.66;;;9.35;57.05
45327;BME280;31062;49.678;24.560;2023-03-15T01:22:57;96784.59;;;9.02;56.90
45327;BME280;31062;49.678;24.560;2023-03-15T01:25:43;96817.91;;;9.16;56.61
45327;BME280;31062;49.678;24.560;2023-03-15T01:28:29;96770.28;;;8.83;56.44
45327;BME280;31062;49.678;24.560;2023-03-15T01:31:24;96785.56;;;8.95;56.57
45327;BME280;31062;49.678;24.560;2023-03-15T01:34:09;96827.66;;;9.17;56.54
45327;BME280;31062;49.678;24.560;2023-03-15T01:36:55;96815.38;;;9.20;56.44
45327;BME280;31062;49.678;24.560;2023-03-15T01:39:47;96817.78;;;9.14;56.28
45327;BME280;31062;49.678;24.560;2023-03-15T01:42:52;96653.16;;;7.97;56.61
45327;BME280;31062;49.678;24.560;2023-03-15T01:46:02;96826.19;;;9.16;56.32
45327;BME280;31062;49.678;24.560;2023-03-15T01:52:04;96653.16;;;7.97;55.91
45327;BME280;31062;49.678;24.560;2023-03-15T01:55:15;96815.59;;;9.13;55.55
45327;BME280;31062;49.678;24.560;2023-03-15T01:58:26;96651.22;;;7.88;55.55
45327;BME280;31062;49.678;24.560;2023-03-15T02:01:14;96817.03;;;9.02;55.46
45327;BME280;31062;49.678;24.560;2023-03-15T02:04:08;96822.81;;;9.06;55.15
45327;BME280;31062;49.678;24.560;2023-03-15T02:07:01;96801.38;;;8.72;55.41
45327;BME280;31062;49.678;24.560;2023-03-15T02:12:50;96702.66;;;8.16;55.13
45327;BME280;31062;49.678;24.560;2023-03-15T02:15:37;96823.28;;;9.02;55.19
45327;BME280;31062;49.678;24.560;2023-03-15T02:18:24;96834.59;;;9.18;55.37
45327;BME280;31062;49.678;24.560;2023-03-15T02:26:57;96822.81;;;9.18;56.90
45327;BME280;31062;49.678;24.560;2023-03-15T02:29:42;96797.91;;;8.83;56.91
45327;BME280;31062;49.678;24.560;2023-03-15T02:32:30;96657.38;;;7.98;57.18
45327;BME280;31062;49.678;24.560;2023-03-15T02:35:27;96800.94;;;8.98;57.57
45327;BME280;31062;49.678;24.560;2023-03-15T02:38:14;96841.56;;;8.96;57.12
45327;BME280;31062;49.678;24.560;2023-03-15T02:41:01;96763.53;;;8.63;56.65
45327;BME280;31062;49.678;24.560;2023-03-15T02:43:49;96852.91;;;9.23;56.40
45327;BME280;31062;49.678;24.560;2023-03-15T02:46:37;96845.41;;;9.14;56.37
45327;BME280;31062;49.678;24.560;2023-03-15T02:49:26;96727.28;;;8.24;56.35
45327;BME280;31062;49.678;24.560;2023-03-15T02:52:14;96698.66;;;8.07;56.44
45327;BME280;31062;49.678;24.560;2023-03-15T02:54:59;96855.88;;;9.16;56.37
45327;BME280;31062;49.678;24.560;2023-03-15T02:57:46;96849.28;;;9.09;56.48
45327;BME280;31062;49.678;24.560;2023-03-15T03:00:32;96869.72;;;9.16;56.28
45327;BME280;31062;49.678;24.560;2023-03-15T03:03:17;96690.50;;;7.98;56.62
45327;BME280;31062;49.678;24.560;2023-03-15T03:06:03;96859.38;;;9.16;56.90
45327;BME280;31062;49.678;24.560;2023-03-15T03:08:49;96831.56;;;8.91;56.73
45327;BME280;31062;49.678;24.560;2023-03-15T03:11:37;96789.72;;;8.62;56.15
45327;BME280;31062;49.678;24.560;2023-03-15T03:14:23;96746.25;;;8.29;55.57
45327;BME280;31062;49.678;24.560;2023-03-15T03:17:09;96699.13;;;7.92;55.27
45327;BME280;31062;49.678;24.560;2023-03-15T03:19:55;96870.44;;;9.16;55.09
45327;BME280;31062;49.678;24.560;2023-03-15T03:22:49;96875.47;;;9.20;55.87
45327;BME280;31062;49.678;24.560;2023-03-15T03:25:35;96748.78;;;8.25;55.99
45327;BME280;31062;49.678;24.560;2023-03-15T03:28:26;96752.97;;;8.26;56.51
45327;BME280;31062;49.678;24.560;2023-03-15T03:31:31;96848.16;;;8.91;56.55
45327;BME280;31062;49.678;24.560;2023-03-15T03:34:21;96893.28;;;9.17;56.81
45327;BME280;31062;49.678;24.560;2023-03-15T03:37:07;96719.03;;;7.91;56.09
45327;BME280;31062;49.678;24.560;2023-03-15T03:40:07;96717.31;;;7.86;55.83
45327;BME280;31062;49.678;24.560;2023-03-15T03:42:54;96726.31;;;7.86;55.93
45327;BME280;31062;49.678;24.560;2023-03-15T03:45:40;96908.13;;;9.00;55.50
45327;BME280;31062;49.678;24.560;2023-03-15T03:48:27;96820.19;;;8.52;55.23
45327;BME280;31062;49.678;24.560;2023-03-15T03:51:13;96864.38;;;8.85;55.62
45327;BME280;31062;49.678;24.560;2023-03-15T03:53:58;96827.75;;;8.51;56.62
45327;BME280;31062;49.678;24.560;2023-03-15T03:56:44;96737.41;;;7.76;57.64
45327;BME280;31062;49.678;24.560;2023-03-15T03:59:30;96755.03;;;7.71;58.73
45327;BME280;31062;49.678;24.560;2023-03-15T04:02:21;96903.69;;;8.62;59.04
45327;BME280;31062;49.678;24.560;2023-03-15T04:05:15;96869.06;;;8.28;59.95
45327;BME280;31062;49.678;24.560;2023-03-15T04:08:02;96897.84;;;8.46;60.89
45327;BME280;31062;49.678;24.560;2023-03-15T04:10:55;96771.06;;;7.42;61.46
45327;BME280;31062;49.678;24.560;2023-03-15T04:13:44;96901.41;;;8.37;62.79
45327;BME280;31062;49.678;24.560;2023-03-15T04:16:29;96722.03;;;7.10;62.40
45327;BME280;31062;49.678;24.560;2023-03-15T04:19:19;96728.34;;;7.01;62.82
45327;BME280;31062;49.678;24.560;2023-03-15T04:22:04;96742.69;;;6.99;63.61
45327;BME280;31062;49.678;24.560;2023-03-15T04:25:04;96918.88;;;8.09;63.92
45327;BME280;31062;49.678;24.560;2023-03-15T04:28:08;96933.19;;;8.17;64.45
45327;BME280;31062;49.678;24.560;2023-03-15T04:31:12;96922.16;;;8.17;64.01
45327;BME280;31062;49.678;24.560;2023-03-15T04:34:16;96876.41;;;7.93;64.02
45327;BME280;31062;49.678;24.560;2023-03-15T04:37:34;96904.03;;;8.14;65.41
45327;BME280;31062;49.678;24.560;2023-03-15T04:40:53;96919.94;;;8.25;65.67
45327;BME280;31062;49.678;24.560;2023-03-15T04:43:57;96907.97;;;8.11;65.41
45327;BME280;31062;49.678;24.560;2023-03-15T04:47:05;96968.16;;;8.34;64.90
45327;BME280;31062;49.678;24.560;2023-03-15T04:50:08;96802.44;;;7.37;64.76
45327;BME280;31062;49.678;24.560;2023-03-15T04:53:17;96800.31;;;7.26;65.05
45327;BME280;31062;49.678;24.560;2023-03-15T04:56:23;96789.78;;;7.13;65.44
45327;BME280;31062;49.678;24.560;2023-03-15T04:59:25;96923.19;;;7.91;65.80
45327;BME280;31062;49.678;24.560;2023-03-15T05:02:29;96790.22;;;7.09;65.73
45327;BME280;31062;49.678;24.560;2023-03-15T05:05:24;96899.28;;;7.84;65.90
45327;BME280;31062;49.678;24.560;2023-03-15T05:08:09;96909.25;;;7.89;66.55
45327;BME280;31062;49.678;24.560;2023-03-15T05:11:11;96961.09;;;8.21;66.99
45327;BME280;31062;49.678;24.560;2023-03-15T05:14:14;96790.53;;;7.04;66.70
45327;BME280;31062;49.678;24.560;2023-03-15T05:17:18;96960.03;;;8.26;67.06
45327;BME280;31062;49.678;24.560;2023-03-15T05:20:24;96837.38;;;7.34;67.22
45327;BME280;31062;49.678;24.560;2023-03-15T05:23:28;96803.28;;;7.09;66.25
45327;BME280;31062;49.678;24.560;2023-03-15T05:26:27;96815.31;;;7.04;66.22
45327;BME280;31062;49.678;24.560;2023-03-15T05:29:49;96834.50;;;7.02;66.43
45327;BME280;31062;49.678;24.560;2023-03-15T05:33:14;96913.78;;;7.53;67.79
45327;BME280;31062;49.678;24.560;2023-03-15T05:36:07;97000.38;;;8.10;68.63
45327;BME280;31062;49.678;24.560;2023-03-15T05:39:16;97005.50;;;8.04;69.13
45327;BME280;31062;49.678;24.560;2023-03-15T05:42:26;96985.97;;;7.80;69.03
45327;BME280;31062;49.678;24.560;2023-03-15T05:45:35;97026.25;;;8.05;68.92
45327;BME280;31062;49.678;24.560;2023-03-15T05:48:21;97012.53;;;7.86;68.37
45327;BME280;31062;49.678;24.560;2023-03-15T05:51:13;96849.94;;;6.66;68.64
45327;BME280;31062;49.678;24.560;2023-03-15T05:54:21;97039.38;;;7.95;68.14
45327;BME280;31062;49.678;24.560;2023-03-15T05:57:27;96991.56;;;7.61;68.37
45327;BME280;31062;49.678;24.560;2023-03-15T06:00:37;96858.34;;;6.68;68.80
45327;BME280;31062;49.678;24.560;2023-03-15T06:03:32;96999.69;;;7.59;68.75
45327;BME280;31062;49.678;24.560;2023-03-15T06:06:28;96953.09;;;7.04;68.84
45327;BME280;31062;49.678;24.560;2023-03-15T06:09:16;97034.31;;;7.91;68.94
45327;BME280;31062;49.678;24.560;2023-03-15T06:12:03;97036.34;;;7.91;68.75
45327;BME280;31062;49.678;24.560;2023-03-15T06:14:49;96885.69;;;6.95;69.41
45327;BME280;31062;49.678;24.560;2023-03-15T06:17:35;96856.31;;;6.78;69.88
45327;BME280;31062;49.678;24.560;2023-03-15T06:20:20;96864.69;;;6.80;69.64
45327;BME280;31062;49.678;24.560;2023-03-15T06:23:06;97034.47;;;7.84;69.39
45327;BME280;31062;49.678;24.560;2023-03-15T06:26:12;97024.88;;;7.85;70.39
45327;BME280;31062;49.678;24.560;2023-03-15T06:28:59;96891.81;;;6.84;71.56
45327;BME280;31062;49.678;24.560;2023-03-15T06:31:45;97027.00;;;7.55;71.55
45327;BME280;31062;49.678;24.560;2023-03-15T06:34:32;97057.09;;;7.32;72.99
45327;BME280;31062;49.678;24.560;2023-03-15T06:37:18;97038.66;;;7.25;73.49
45327;BME280;31062;49.678;24.560;2023-03-15T06:40:19;96897.63;;;6.11;74.39
45327;BME280;31062;49.678;24.560;2023-03-15T06:43:06;97012.84;;;6.91;75.14
45327;BME280;31062;49.678;24.560;2023-03-15T06:45:52;96893.72;;;6.14;75.16
45327;BME280;31062;49.678;24.560;2023-03-15T06:48:40;96897.50;;;6.19;75.10
45327;BME280;31062;49.678;24.560;2023-03-15T06:51:28;97066.50;;;7.29;75.81
45327;BME280;31062;49.678;24.560;2023-03-15T06:54:13;96928.78;;;6.33;76.19
45327;BME280;31062;49.678;24.560;2023-03-15T06:56:59;97033.88;;;7.16;76.79
45327;BME280;31062;49.678;24.560;2023-03-15T06:59:44;96908.06;;;6.32;77.00
45327;BME280;31062;49.678;24.560;2023-03-15T07:02:30;97007.34;;;6.82;77.61
45327;BME280;31062;49.678;24.560;2023-03-15T07:05:21;97053.16;;;7.35;78.68
45327;BME280;31062;49.678;24.560;2023-03-15T07:08:06;97016.63;;;7.06;80.01
45327;BME280;31062;49.678;24.560;2023-03-15T07:10:52;96908.66;;;6.30;80.20
45327;BME280;31062;49.678;24.560;2023-03-15T07:13:38;96909.50;;;6.33;81.95
45327;BME280;31062;49.678;24.560;2023-03-15T07:16:24;96903.88;;;6.31;82.27
45327;BME280;31062;49.678;24.560;2023-03-15T07:19:10;96919.66;;;6.40;81.88
45327;BME280;31062;49.678;24.560;2023-03-15T07:21:55;97052.97;;;7.52;82.95
45327;BME280;31062;49.678;24.560;2023-03-15T07:24:40;97017.16;;;7.33;83.88
45327;BME280;31062;49.678;24.560;2023-03-15T07:27:26;96894.88;;;6.59;84.73
45327;BME280;31062;49.678;24.560;2023-03-15T07:30:12;96918.31;;;6.79;84.72
45327;BME280;31062;49.678;24.560;2023-03-15T07:32:57;97060.34;;;7.78;85.21
45327;BME280;31062;49.678;24.560;2023-03-15T07:35:44;97046.13;;;7.63;85.64
45327;BME280;31062;49.678;24.560;2023-03-15T07:38:29;97024.84;;;7.44;85.12
45327;BME280;31062;49.678;24.560;2023-03-15T07:41:16;97089.88;;;8.07;84.91
45327;BME280;31062;49.678;24.560;2023-03-15T07:44:22;97063.78;;;7.89;84.79
45327;BME280;31062;49.678;24.560;2023-03-15T07:47:08;97008.31;;;7.34;85.32
45327;BME280;31062;49.678;24.560;2023-03-15T07:49:54;97064.88;;;8.05;85.40
45327;BME280;31062;49.678;24.560;2023-03-15T07:52:39;97050.25;;;7.93;85.66
45327;BME280;31062;49.678;24.560;2023-03-15T07:55:25;97039.72;;;7.79;86.30
45327;BME280;31062;49.678;24.560;2023-03-15T07:58:10;96931.34;;;7.08;85.21
45327;BME280;31062;49.678;24.560;2023-03-15T08:00:57;97069.81;;;8.16;86.15
45327;BME280;31062;49.678;24.560;2023-03-15T08:03:42;96902.94;;;6.95;86.53
45327;BME280;31062;49.678;24.560;2023-03-15T08:06:27;97099.13;;;8.21;86.79
45327;BME280;31062;49.678;24.560;2023-03-15T08:09:14;97103.34;;;8.22;86.77
45327;BME280;31062;49.678;24.560;2023-03-15T08:12:01;97119.00;;;8.29;86.52
45327;BME280;31062;49.678;24.560;2023-03-15T08:14:46;97011.91;;;7.56;86.65
45327;BME280;31062;49.678;24.560;2023-03-15T08:17:34;97141.94;;;8.41;86.15
45327;BME280;31062;49.678;24.560;2023-03-15T08:20:21;97151.94;;;8.46;86.45
45327;BME280;31062;49.678;24.560;2023-03-15T08:23:07;97153.53;;;8.49;85.93
45327;BME280;31062;49.678;24.560;2023-03-15T08:25:54;97143.66;;;8.46;86.07
45327;BME280;31062;49.678;24.560;2023-03-15T08:28:42;97145.16;;;8.28;84.27
45327;BME280;31062;49.678;24.560;2023-03-15T08:31:31;97094.66;;;7.56;81.70
45327;BME280;31062;49.678;24.560;2023-03-15T08:34:17;97175.59;;;7.90;81.38
45327;BME280;31062;49.678;24.560;2023-03-15T08:37:03;97200.31;;;7.68;81.21
45327;BME280;31062;49.678;24.560;2023-03-15T08:39:49;97215.41;;;7.48;80.59
45327;BME280;31062;49.678;24.560;2023-03-15T08:42:42;97201.53;;;6.90;79.66
45327;BME280;31062;49.678;24.560;2023-03-15T08:45:27;97158.59;;;6.51;80.30
45327;BME280;31062;49.678;24.560;2023-03-15T08:48:13;97153.34;;;6.36;79.58
45327;BME280;31062;49.678;24.560;2023-03-15T08:51:03;97195.41;;;6.46;80.10
45327;BME280;31062;49.678;24.560;2023-03-15T08:53:49;97199.50;;;6.28;81.13
45327;BME280;31062;49.678;24.560;2023-03-15T08:56:38;97209.44;;;6.13;81.48
45327;BME280;31062;49.678;24.560;2023-03-15T08:59:24;97042.38;;;4.65;81.45
45327;BME280;31062;49.678;24.560;2023-03-15T09:02:16;97092.38;;;4.98;82.12
45327;BME280;31062;49.678;24.560;2023-03-15T09:05:03;97098.09;;;4.92;82.22
45327;BME280;31062;49.678;24.560;2023-03-15T09:07:51;97128.50;;;5.11;81.07
45327;BME280;31062;49.678;24.560;2023-03-15T09:10:37;97159.69;;;5.23;80.91
45327;BME280;31062;49.678;24.560;2023-03-15T09:13:23;97234.06;;;5.77;80.75
45327;BME280;31062;49.678;24.560;2023-03-15T09:16:08;97175.75;;;5.44;80.97
45327;BME280;31062;49.678;24.560;2023-03-15T09:18:54;97217.88;;;5.64;81.09
45327;BME280;31062;49.678;24.560;2023-03-15T09:21:39;97202.13;;;5.64;80.86
45327;BME280;31062;49.678;24.560;2023-03-15T09:24:26;97191.94;;;5.40;80.71
45327;BME280;31062;49.678;24.560;2023-03-15T09:27:12;97244.91;;;5.58;80.73
45327;BME280;31062;49.678;24.560;2023-03-15T09:29:58;97279.00;;;5.55;80.27
45327;BME280;31062;49.678;24.560;2023-03-15T09:32:43;97194.28;;;4.84;80.52
45327;BME280;31062;49.678;24.560;2023-03-15T09:35:30;97310.84;;;5.41;80.68
45327;BME280;31062;49.678;24.560;2023-03-15T09:38:15;97138.00;;;4.26;80.14
45327;BME280;31062;49.678;24.560;2023-03-15T09:41:00;97300.16;;;5.27;80.07
45327;BME280;31062;49.678;24.560;2023-03-15T09:46:51;97096.97;;;3.79;79.68
45327;BME280;31062;49.678;24.560;2023-03-15T09:50:03;97242.53;;;4.45;79.12
45327;BME280;31062;49.678;24.560;2023-03-15T09:52:55;97283.66;;;4.78;78.70
45327;BME280;31062;49.678;24.560;2023-03-15T09:55:45;97260.44;;;4.46;78.69
45327;BME280;31062;49.678;24.560;2023-03-15T09:58:32;97326.75;;;4.68;78.96
45327;BME280;31062;49.678;24.560;2023-03-15T10:01:22;97283.84;;;4.47;79.74
45327;BME280;31062;49.678;24.560;2023-03-15T10:04:32;97275.09;;;4.41;80.53
45327;BME280;31062;49.678;24.560;2023-03-15T10:07:21;97329.81;;;4.72;81.02
45327;BME280;31062;49.678;24.560;2023-03-15T10:10:14;97362.09;;;4.64;81.26
45327;BME280;31062;49.678;24.560;2023-03-15T10:13:23;97354.00;;;4.66;80.26
45327;BME280;31062;49.678;24.560;2023-03-15T10:28:08;97372.56;;;4.50;80.50
45327;BME280;31062;49.678;24.560;2023-03-15T10:30:58;97340.47;;;4.28;80.82
45327;BME280;31062;49.678;24.560;2023-03-15T10:33:45;97187.09;;;3.12;80.95
45327;BME280;31062;49.678;24.560;2023-03-15T10:36:32;97325.72;;;4.08;80.52
45327;BME280;31062;49.678;24.560;2023-03-15T10:39:18;97325.00;;;4.07;81.00
45327;BME280;31062;49.678;24.560;2023-03-15T10:42:04;97359.63;;;4.35;79.60
45327;BME280;31062;49.678;24.560;2023-03-15T10:44:49;97365.19;;;4.20;79.10
45327;BME280;31062;49.678;24.560;2023-03-15T10:47:39;97312.66;;;3.68;79.19
45327;BME280;31062;49.678;24.560;2023-03-15T10:50:32;97347.50;;;3.98;79.72
45327;BME280;31062;49.678;24.560;2023-03-15T10:53:18;97363.06;;;3.96;79.80
45327;BME280;31062;49.678;24.560;2023-03-15T10:56:15;97417.16;;;3.88;80.52
45327;BME280;31062;49.678;24.560;2023-03-15T10:59:14;97382.81;;;3.87;80.74
45327;BME280;31062;49.678;24.560;2023-03-15T11:05:17;97406.56;;;3.77;80.43
45327;BME280;31062;49.678;24.560;2023-03-15T11:08:14;97398.00;;;3.73;80.64
45327;BME280;31062;49.678;24.560;2023-03-15T11:11:00;97264.47;;;2.74;80.91
45327;BME280;31062;49.678;24.560;2023-03-15T11:13:59;97393.06;;;3.63;81.02
45327;BME280;31062;49.678;24.560;2023-03-15T11:16:51;97365.31;;;3.44;81.36
45327;BME280;31062;49.678;24.560;2023-03-15T11:19:39;97227.25;;;2.41;80.65
45327;BME280;31062;49.678;24.560;2023-03-15T11:22:26;97396.91;;;3.45;80.65
45327;BME280;31062;49.678;24.560;2023-03-15T11:25:15;97422.84;;;3.59;81.30
45327;BME280;31062;49.678;24.560;2023-03-15T11:28:02;97404.38;;;3.52;82.01
45327;BME280;31062;49.678;24.560;2023-03-15T11:30:49;97367.28;;;3.06;81.43
45327;BME280;31062;49.678;24.560;2023-03-15T11:33:40;97419.00;;;3.55;81.99
45327;BME280;31062;49.678;24.560;2023-03-15T11:36:32;97463.56;;;3.48;81.75
45327;BME280;31062;49.678;24.560;2023-03-15T11:39:31;97365.66;;;3.18;81.46
45327;BME280;31062;49.678;24.560;2023-03-15T11:42:29;97368.75;;;3.07;81.50
45327;BME280;31062;49.678;24.560;2023-03-15T11:45:23;97432.53;;;3.45;81.27
45327;BME280;31062;49.678;24.560;2023-03-15T11:48:30;97286.00;;;2.55;81.57
45327;BME280;31062;49.678;24.560;2023-03-15T11:51:18;97340.41;;;2.74;81.84
45327;BME280;31062;49.678;24.560;2023-03-15T11:57:03;97378.78;;;3.04;81.69
45327;BME280;31062;49.678;24.560;2023-03-15T11:59:50;97261.09;;;2.23;82.19
45327;BME280;31062;49.678;24.560;2023-03-15T12:02:49;97324.66;;;2.59;82.79
45327;BME280;31062;49.678;24.560;2023-03-15T12:18:04;97379.81;;;2.71;83.47
45327;BME280;31062;49.678;24.560;2023-03-15T12:21:08;97435.94;;;3.08;83.62
45327;BME280;31062;49.678;24.560;2023-03-15T12:23:58;97325.28;;;2.22;83.64
45327;BME280;31062;49.678;24.560;2023-03-15T12:26:47;97439.75;;;3.05;84.03
45327;BME280;31062;49.678;24.560;2023-03-15T12:29:34;97394.72;;;2.62;84.40
45327;BME280;31062;49.678;24.560;2023-03-15T12:32:20;97463.09;;;2.98;84.17
45327;BME280;31062;49.678;24.560;2023-03-15T12:35:14;97321.53;;;1.96;83.53
45327;BME280;31062;49.678;24.560;2023-03-15T12:38:01;97438.63;;;2.93;84.02
45327;BME280;31062;49.678;24.560;2023-03-15T12:40:54;97452.69;;;2.97;83.57
45327;BME280;31062;49.678;24.560;2023-03-15T12:43:45;97350.47;;;2.28;83.70
45327;BME280;31062;49.678;24.560;2023-03-15T12:55:02;97456.28;;;2.76;83.62
45327;BME280;31062;49.678;24.560;2023-03-15T12:57:52;97397.09;;;2.22;84.11
45327;BME280;31062;49.678;24.560;2023-03-15T13:00:42;97442.69;;;2.56;84.46
45327;BME280;31062;49.678;24.560;2023-03-15T13:03:29;97474.53;;;2.74;84.57
45327;BME280;31062;49.678;24.560;2023-03-15T13:12:44;97479.75;;;2.64;86.19
45327;BME280;31062;49.678;24.560;2023-03-15T13:16:32;97459.66;;;2.54;86.30
45327;BME280;31062;49.678;24.560;2023-03-15T13:18:59;97497.25;;;2.61;85.94
45327;BME280;31062;49.678;24.560;2023-03-15T13:27:54;97338.31;;;1.44;85.88
45327;BME280;31062;49.678;24.560;2023-03-15T13:30:41;97456.53;;;2.22;86.26
45327;BME280;31062;49.678;24.560;2023-03-15T13:33:31;97523.41;;;2.41;86.31
45327;BME280;31062;49.678;24.560;2023-03-15T13:36:18;97434.47;;;1.91;86.25
45327;BME280;31062;49.678;24.560;2023-03-15T13:39:13;97485.34;;;2.23;86.44
45327;BME280;31062;49.678;24.560;2023-03-15T13:42:04;97478.03;;;2.18;86.11
45327;BME280;31062;49.678;24.560;2023-03-15T13:45:12;97457.13;;;1.99;86.75
45327;BME280;31062;49.678;24.560;2023-03-15T13:48:03;97431.84;;;1.78;86.97
45327;BME280;31062;49.678;24.560;2023-03-15T13:50:52;97440.50;;;1.69;86.98
45327;BME280;31062;49.678;24.560;2023-03-15T13:53:39;97468.44;;;2.03;87.12
45327;BME280;31062;49.678;24.560;2023-03-15T13:56:37;97469.53;;;2.00;87.37
45327;BME280;31062;49.678;24.560;2023-03-15T14:02:34;97515.94;;;2.14;87.52
45327;BME280;31062;49.678;24.560;2023-03-15T14:05:26;97512.19;;;2.03;87.09
45327;BME280;31062;49.678;24.560;2023-03-15T14:08:20;97314.94;;;0.86;86.98
45327;BME280;31062;49.678;24.560;2023-03-15T14:11:11;97499.53;;;2.14;86.78
45327;BME280;31062;49.678;24.560;2023-03-15T14:14:21;97467.41;;;1.86;87.25
45327;BME280;31062;49.678;24.560;2023-03-15T14:17:19;97513.38;;;2.16;86.85
45327;BME280;31062;49.678;24.560;2023-03-15T14:20:14;97484.00;;;1.88;86.65
45327;BME280;31062;49.678;24.560;2023-03-15T14:23:02;97320.00;;;0.82;86.66
45327;BME280;31062;49.678;24.560;2023-03-15T14:26:39;97510.63;;;2.16;86.95
45327;BME280;31062;49.678;24.560;2023-03-15T14:29:14;97305.31;;;0.72;86.54
45327;BME280;31062;49.678;24.560;2023-03-15T14:32:04;97423.59;;;1.50;87.05
45327;BME280;31062;49.678;24.560;2023-03-15T14:34:57;97520.97;;;2.10;86.66
45327;BME280;31062;49.678;24.560;2023-03-15T14:37:44;97540.81;;;2.02;87.10
45327;BME280;31062;49.678;24.560;2023-03-15T14:40:36;97403.81;;;1.15;87.49
45327;BME280;31062;49.678;24.560;2023-03-15T14:43:23;97537.22;;;2.08;87.56
45327;BME280;31062;49.678;24.560;2023-03-15T14:46:08;97540.88;;;1.89;87.58
45327;BME280;31062;49.678;24.560;2023-03-15T14:48:54;97523.00;;;1.88;87.90
45327;BME280;31062;49.678;24.560;2023-03-15T14:51:39;97306.91;;;0.47;87.84
45327;BME280;31062;49.678;24.560;2023-03-15T14:54:24;97443.38;;;1.43;88.50
45327;BME280;31062;49.678;24.560;2023-03-15T14:57:10;97502.13;;;1.57;88.71
45327;BME280;31062;49.678;24.560;2023-03-15T14:59:55;97546.06;;;2.00;88.60
45327;BME280;31062;49.678;24.560;2023-03-15T15:02:46;97553.00;;;2.01;88.75
45327;BME280;31062;49.678;24.560;2023-03-15T15:05:33;97352.06;;;0.55;88.54
45327;BME280;31062;49.678;24.560;2023-03-15T15:08:20;97584.34;;;2.00;88.79
45327;BME280;31062;49.678;24.560;2023-03-15T15:11:07;97393.72;;;0.90;88.17
45327;BME280;31062;49.678;24.560;2023-03-15T15:13:53;97536.88;;;1.90;88.67
45327;BME280;31062;49.678;24.560;2023-03-15T15:16:40;97524.34;;;1.74;88.63
45327;BME280;31062;49.678;24.560;2023-03-15T15:19:27;97575.81;;;1.83;89.03
45327;BME280;31062;49.678;24.560;2023-03-15T15:22:12;97523.56;;;1.66;88.78
45327;BME280;31062;49.678;24.560;2023-03-15T15:24:58;97572.34;;;2.03;88.93
45327;BME280;31062;49.678;24.560;2023-03-15T15:27:46;97382.13;;;0.76;88.38
45327;BME280;31062;49.678;24.560;2023-03-15T15:30:33;97548.47;;;1.83;88.61
45327;BME280;31062;49.678;24.560;2023-03-15T15:33:19;97474.28;;;1.38;88.27
45327;BME280;31062;49.678;24.560;2023-03-15T15:36:10;97599.50;;;2.01;88.46
45327;BME280;31062;49.678;24.560;2023-03-15T15:38:56;97580.34;;;2.01;87.98
45327;BME280;31062;49.678;24.560;2023-03-15T15:41:42;97587.34;;;2.10;87.83
45327;BME280;31062;49.678;24.560;2023-03-15T15:44:28;97549.53;;;1.80;88.13
45327;BME280;31062;49.678;24.560;2023-03-15T15:47:14;97521.25;;;1.57;88.21
45327;BME280;31062;49.678;24.560;2023-03-15T15:50:00;97582.94;;;2.07;87.89
45327;BME280;31062;49.678;24.560;2023-03-15T15:52:50;97363.72;;;0.56;87.53
45327;BME280;31062;49.678;24.560;2023-03-15T15:55:37;97590.06;;;2.10;88.27
45327;BME280;31062;49.678;24.560;2023-03-15T15:58:25;97432.22;;;0.99;87.96
45327;BME280;31062;49.678;24.560;2023-03-15T16:01:12;97596.47;;;2.13;87.64
45327;BME280;31062;49.678;24.560;2023-03-15T16:03:59;97597.22;;;2.13;88.19
45327;BME280;31062;49.678;24.560;2023-03-15T16:06:52;97584.34;;;2.00;88.54
45327;BME280;31062;49.678;24.560;2023-03-15T16:09:39;97595.75;;;2.12;88.29
45327;BME280;31062;49.678;24.560;2023-03-15T16:12:29;97608.47;;;2.10;88.32
45327;BME280;31062;49.678;24.560;2023-03-15T16:15:20;97569.91;;;1.79;88.92